Malaya Vishera, Russia
Current Conditions -  °F | °C
As of 12:00 AM on Sunday 26 Oct 2014 (Local Time) from ULLI Reporting Station
Clear Clear  
Wind Chill: 22°   Ceiling: Unl
Heat Index: 30°   Visibility: 6mi
Dew Point: 16°   Wind: 9mph
Humidity: 55%   Direction: 190°S
Pressure: 30.3"   Gusts: NA
Location:  58.85°N, 32.2°E
Report Text: ULLI 252100Z 19004MPS CAVOK M01/M09 Q1026 28////// 78190060NOSIG
Loading
Personal Weather Stations






























Interactive Weather Map
Tropical Storm Tracking
New forecast layout! Learn more

10-Day Weather Forecast

Advertisements
Track Severe Weather on mobile